createdAt,value
2022-12-03T00:02:20.669Z,46.75
2022-12-03T00:07:13.958Z,40.83
2022-12-03T00:09:40.744Z,42.90
2022-12-03T00:14:34.070Z,39.17
2022-12-03T00:17:00.747Z,41.92
2022-12-03T00:19:27.749Z,46.15
2022-12-03T00:21:55.033Z,43.97
2022-12-03T00:24:21.680Z,43.72
2022-12-03T00:26:48.375Z,48.13
2022-12-03T00:29:15.044Z,38.20
2022-12-03T00:31:43.128Z,42.80
2022-12-03T00:34:09.866Z,38.13
2022-12-03T00:36:36.508Z,35.47
2022-12-03T00:39:03.787Z,44.90
2022-12-03T00:41:30.491Z,42.38
2022-12-03T00:43:57.855Z,41.63
2022-12-03T00:46:25.437Z,41.95
2022-12-03T00:48:52.262Z,44.63
2022-12-03T00:51:19.495Z,44.67
2022-12-03T00:53:46.525Z,42.88
2022-12-03T00:56:15.601Z,48.33
2022-12-03T00:58:42.352Z,46.63
2022-12-03T01:01:09.018Z,45.30
2022-12-03T01:03:35.916Z,41.08
2022-12-03T01:08:29.175Z,43.63
2022-12-03T01:10:56.152Z,42.10
2022-12-03T01:15:49.500Z,34.47
2022-12-03T01:18:16.267Z,32.25
2022-12-03T01:20:43.060Z,45.35
2022-12-03T01:23:09.698Z,35.70
2022-12-03T01:25:36.379Z,39.40
2022-12-03T01:28:03.046Z,38.38
2022-12-03T01:30:49.690Z,40.10
2022-12-03T01:33:17.247Z,42.35
2022-12-03T01:35:44.023Z,40.08
2022-12-03T01:38:10.625Z,46.20
2022-12-03T01:40:37.269Z,42.08
2022-12-03T01:43:03.873Z,44.45
2022-12-03T01:45:30.549Z,47.20
2022-12-03T01:47:57.205Z,45.72
2022-12-03T01:50:31.962Z,44.95
2022-12-03T01:53:01.436Z,37.25
2022-12-03T01:55:29.840Z,47.30
2022-12-03T01:58:00.829Z,47.50
2022-12-03T02:00:29.236Z,45.35
2022-12-03T02:03:02.206Z,45.58
2022-12-03T02:08:00.821Z,41.72
2022-12-03T02:10:32.746Z,45.35
2022-12-03T02:13:10.671Z,42.28
2022-12-03T02:15:39.434Z,46.00
2022-12-03T02:18:08.612Z,43.70
2022-12-03T02:20:44.670Z,47.60
2022-12-03T02:23:40.202Z,45.05
2022-12-03T02:26:07.220Z,48.50
2022-12-03T02:31:00.654Z,35.75
2022-12-03T02:35:56.955Z,36.20
2022-12-03T02:38:30.285Z,46.65
2022-12-03T02:41:02.219Z,48.15
2022-12-03T02:43:29.172Z,39.08
2022-12-03T02:48:39.414Z,40.97
2022-12-03T02:51:16.081Z,49.08
2022-12-03T02:53:47.620Z,51.80
2022-12-03T02:56:20.818Z,48.15
2022-12-03T02:58:50.551Z,48.10
2022-12-03T03:01:18.057Z,51.72
2022-12-03T03:03:47.305Z,45.15
2022-12-03T03:06:15.263Z,54.42
2022-12-03T03:08:42.862Z,44.05
2022-12-03T03:11:09.687Z,47.45
2022-12-03T03:16:05.370Z,44.00
2022-12-03T03:18:33.473Z,44.80
2022-12-03T03:21:00.414Z,50.58
2022-12-03T03:23:27.440Z,39.85
2022-12-03T03:26:02.123Z,47.72
2022-12-03T03:28:30.460Z,44.08
2022-12-03T03:30:58.923Z,41.13
2022-12-03T03:33:25.588Z,50.50
2022-12-03T03:35:53.407Z,50.17
2022-12-03T03:38:21.425Z,49.83
2022-12-03T03:40:50.522Z,51.28
2022-12-03T03:43:17.661Z,49.08
2022-12-03T03:45:44.546Z,45.85
2022-12-03T03:48:12.766Z,47.13
2022-12-03T03:50:39.994Z,45.80
2022-12-03T03:53:07.024Z,41.88
2022-12-03T03:55:34.517Z,47.05
2022-12-03T03:58:01.400Z,50.63
2022-12-03T04:00:28.891Z,45.30
2022-12-03T04:02:55.556Z,50.67
2022-12-03T04:05:23.999Z,48.47
2022-12-03T04:07:51.080Z,49.63
2022-12-03T04:10:36.472Z,51.65
2022-12-03T04:13:04.036Z,49.40
2022-12-03T04:15:30.789Z,49.88
2022-12-03T04:18:16.397Z,43.78
2022-12-03T04:20:43.144Z,44.70
2022-12-03T04:23:09.866Z,44.50
2022-12-03T04:25:55.626Z,50.22
2022-12-03T04:28:57.793Z,47.95
2022-12-03T04:31:43.274Z,45.53
2022-12-03T04:34:29.291Z,43.03
2022-12-03T04:36:55.999Z,44.15
2022-12-03T04:39:22.755Z,47.78
2022-12-03T04:44:35.645Z,43.72
2022-12-03T04:47:03.305Z,47.83
2022-12-03T04:49:30.295Z,44.00
2022-12-03T04:51:57.049Z,46.30
2022-12-03T04:54:23.824Z,49.97
2022-12-03T04:56:50.488Z,44.08
2022-12-03T04:59:17.049Z,59.58
2022-12-03T05:01:44.365Z,48.30
2022-12-03T05:04:13.535Z,50.95
2022-12-03T05:06:41.165Z,54.05
2022-12-03T05:09:07.860Z,46.55
2022-12-03T05:14:01.544Z,47.15
2022-12-03T05:16:29.190Z,51.05
2022-12-03T05:18:55.834Z,53.95
2022-12-03T05:21:22.581Z,49.28
2022-12-03T05:23:49.613Z,47.58
2022-12-03T05:26:16.294Z,52.95
2022-12-03T05:28:43.044Z,50.70
2022-12-03T05:31:10.010Z,55.50
2022-12-03T05:33:42.462Z,50.38
2022-12-03T05:36:10.948Z,53.63
2022-12-03T05:41:24.453Z,44.13
2022-12-03T05:43:51.180Z,49.95
2022-12-03T05:46:17.918Z,54.85
2022-12-03T05:48:44.600Z,56.00
2022-12-03T05:51:11.538Z,54.13
2022-12-03T05:53:38.154Z,61.00
2022-12-03T05:56:05.223Z,54.63
2022-12-03T05:58:41.048Z,53.75
2022-12-03T06:01:08.585Z,57.83
2022-12-03T06:03:35.513Z,52.72
2022-12-03T06:06:02.449Z,53.53
2022-12-03T06:10:55.941Z,52.30
2022-12-03T06:13:22.751Z,42.78
2022-12-03T06:15:49.633Z,48.08
2022-12-03T06:18:16.432Z,51.15
2022-12-03T06:20:43.114Z,47.90
2022-12-03T06:23:10.112Z,52.55
2022-12-03T06:25:36.844Z,46.97
2022-12-03T06:28:03.803Z,53.15
2022-12-03T06:33:01.593Z,47.05
2022-12-03T06:35:29.033Z,43.10
2022-12-03T06:37:55.782Z,43.08
2022-12-03T06:40:24.451Z,48.03
2022-12-03T06:42:51.560Z,48.08
2022-12-03T06:45:18.294Z,54.00
2022-12-03T06:50:12.280Z,41.25
2022-12-03T06:52:38.945Z,41.58
2022-12-03T06:55:06.258Z,46.63
2022-12-03T06:57:32.927Z,47.63
2022-12-03T06:59:59.701Z,44.47
2022-12-03T07:02:26.439Z,40.80
2022-12-03T07:04:53.662Z,47.90
2022-12-03T07:07:20.787Z,51.88
2022-12-03T07:09:47.436Z,55.45
2022-12-03T07:12:14.294Z,46.72
2022-12-03T07:14:42.284Z,48.80
2022-12-03T07:17:09.064Z,51.03
2022-12-03T07:19:35.688Z,45.97
2022-12-03T07:22:02.874Z,47.88
2022-12-03T07:24:29.759Z,39.88
2022-12-03T07:26:56.792Z,51.80
2022-12-03T07:29:23.575Z,47.92
2022-12-03T07:31:50.419Z,52.65
2022-12-03T07:36:43.875Z,43.03
2022-12-03T07:39:25.673Z,47.88
2022-12-03T07:41:52.436Z,46.67
2022-12-03T07:44:21.075Z,48.03
2022-12-03T07:46:48.087Z,48.88
2022-12-03T07:49:14.964Z,52.80
2022-12-03T07:51:41.703Z,46.13
2022-12-03T07:54:10.863Z,46.10
2022-12-03T07:56:41.268Z,47.40
2022-12-03T07:59:08.151Z,49.35
2022-12-03T08:04:01.722Z,44.78
2022-12-03T08:06:28.726Z,41.03
2022-12-03T08:08:57.048Z,46.58
2022-12-03T08:11:23.802Z,42.47
2022-12-03T08:13:50.549Z,47.75
2022-12-03T08:16:29.157Z,51.35
2022-12-03T08:18:57.556Z,46.05
2022-12-03T08:21:24.407Z,41.55
2022-12-03T08:23:51.166Z,44.83
2022-12-03T08:26:28.005Z,50.88
2022-12-03T08:28:55.029Z,46.42
2022-12-03T08:31:32.216Z,46.28
2022-12-03T08:34:15.504Z,45.33
2022-12-03T08:36:42.256Z,44.88
2022-12-03T08:39:30.485Z,50.65
2022-12-03T08:42:28.030Z,54.83
2022-12-03T08:44:55.493Z,48.70
2022-12-03T08:47:25.212Z,46.13
2022-12-03T08:50:00.043Z,50.45
2022-12-03T08:52:35.417Z,51.03
2022-12-03T08:55:38.266Z,55.05
2022-12-03T08:58:28.996Z,46.45
2022-12-03T09:00:59.963Z,47.85
2022-12-03T09:03:31.074Z,49.70
2022-12-03T09:05:57.879Z,48.22
2022-12-03T09:08:24.648Z,45.78
2022-12-03T09:13:17.975Z,43.63
2022-12-03T09:15:44.714Z,51.17
2022-12-03T09:18:11.397Z,47.60
2022-12-03T09:23:04.711Z,47.78
2022-12-03T09:25:31.546Z,41.10
2022-12-03T09:30:24.986Z,38.10
2022-12-03T09:32:51.706Z,47.30
2022-12-03T09:35:18.557Z,39.50
2022-12-03T09:37:45.249Z,45.85
2022-12-03T09:40:13.287Z,41.45
2022-12-03T09:42:40.273Z,40.55
2022-12-03T09:45:10.887Z,38.90
2022-12-03T09:47:39.818Z,46.97
2022-12-03T09:50:07.545Z,42.42
2022-12-03T09:52:34.854Z,40.28
2022-12-03T09:55:11.746Z,37.97
2022-12-03T09:57:38.552Z,43.83
2022-12-03T10:00:16.353Z,40.88
2022-12-03T10:02:45.346Z,48.60
2022-12-03T10:05:25.298Z,37.33
2022-12-03T10:07:52.934Z,40.15
2022-12-03T10:10:26.919Z,34.47
2022-12-03T10:12:54.915Z,34.08
2022-12-03T10:15:27.339Z,42.67
2022-12-03T10:18:02.604Z,36.80
2022-12-03T10:20:29.400Z,41.25
2022-12-03T10:25:23.083Z,39.15
2022-12-03T10:28:02.094Z,37.72
2022-12-03T10:33:14.361Z,35.22
2022-12-03T10:35:45.900Z,33.25
2022-12-03T10:40:46.022Z,32.90
2022-12-03T10:43:19.294Z,35.53
2022-12-03T10:45:50.174Z,37.38
2022-12-03T10:48:27.910Z,36.75
2022-12-03T10:50:57.035Z,37.42
2022-12-03T10:53:27.804Z,35.97
2022-12-03T10:55:59.897Z,34.63
2022-12-03T10:58:34.129Z,35.17
2022-12-03T11:01:06.271Z,33.65
2022-12-03T11:03:36.294Z,33.50
2022-12-03T11:06:03.596Z,36.00
2022-12-03T11:08:43.684Z,36.42
2022-12-03T11:11:23.563Z,36.80
2022-12-03T11:13:56.591Z,37.55
2022-12-03T11:16:47.373Z,41.25
2022-12-03T11:19:38.625Z,37.55
2022-12-03T11:22:05.368Z,35.92
2022-12-03T11:27:00.214Z,31.98
2022-12-03T11:29:53.795Z,36.10
2022-12-03T11:32:43.584Z,31.90
2022-12-03T11:35:16.497Z,38.70
2022-12-03T11:37:43.201Z,35.95
2022-12-03T11:40:18.999Z,39.35
2022-12-03T11:42:47.869Z,36.28
2022-12-03T11:45:34.231Z,39.00
2022-12-03T11:48:13.965Z,41.53
2022-12-03T11:50:44.699Z,39.45
2022-12-03T11:53:22.943Z,42.88
2022-12-03T11:56:06.321Z,43.97
2022-12-03T11:58:35.917Z,41.03
2022-12-03T12:01:05.199Z,36.55
2022-12-03T12:03:49.228Z,37.78
2022-12-03T12:06:19.097Z,40.17
2022-12-03T12:08:52.107Z,38.45
2022-12-03T12:11:19.913Z,38.55
2022-12-03T12:13:51.230Z,38.58
2022-12-03T12:16:50.387Z,41.58
2022-12-03T12:19:32.524Z,43.13
2022-12-03T12:22:26.769Z,42.35
2022-12-03T12:25:04.615Z,41.28
2022-12-03T12:27:48.205Z,44.33
2022-12-03T12:30:18.634Z,36.92
2022-12-03T12:32:50.904Z,42.90
2022-12-03T12:35:45.173Z,39.90
2022-12-03T12:38:29.872Z,40.03
2022-12-03T12:40:57.320Z,44.70
2022-12-03T12:43:28.073Z,41.80
2022-12-03T12:45:56.950Z,38.53
2022-12-03T12:48:27.318Z,42.95
2022-12-03T12:51:14.550Z,41.05
2022-12-03T12:53:42.964Z,42.90
2022-12-03T12:56:32.603Z,43.13
2022-12-03T12:59:12.517Z,38.78
2022-12-03T13:01:40.177Z,41.58
2022-12-03T13:04:19.433Z,42.97
2022-12-03T13:06:48.220Z,38.38
2022-12-03T13:09:19.449Z,41.92
2022-12-03T13:11:51.721Z,40.42
2022-12-03T13:14:21.042Z,42.95
2022-12-03T13:16:49.547Z,40.55
2022-12-03T13:19:30.739Z,41.72
2022-12-03T13:22:01.730Z,44.28
2022-12-03T13:24:31.264Z,37.40
2022-12-03T13:27:02.647Z,38.88
2022-12-03T13:29:29.315Z,41.20
2022-12-03T13:32:01.655Z,43.05
2022-12-03T13:34:36.234Z,43.10
2022-12-03T13:37:06.790Z,38.60
2022-12-03T13:39:36.910Z,40.53
2022-12-03T13:42:38.620Z,41.67
2022-12-03T13:45:24.707Z,37.50
2022-12-03T13:48:03.557Z,36.90
2022-12-03T13:50:46.176Z,43.17
2022-12-03T13:53:26.804Z,42.72
2022-12-03T13:56:14.680Z,41.47
2022-12-03T13:58:41.279Z,44.58
2022-12-03T14:01:08.011Z,39.60
2022-12-03T14:06:01.618Z,41.78
2022-12-03T14:08:30.031Z,44.50
2022-12-03T14:11:00.570Z,44.40
2022-12-03T14:13:27.963Z,42.40
2022-12-03T14:15:55.296Z,45.60
2022-12-03T14:18:22.080Z,42.80
2022-12-03T14:20:48.762Z,43.67
2022-12-03T14:23:15.717Z,40.33
2022-12-03T14:25:43.998Z,42.80
2022-12-03T14:28:12.153Z,45.30
2022-12-03T14:30:39.104Z,45.03
2022-12-03T14:33:05.799Z,43.47
2022-12-03T14:35:32.590Z,46.28
2022-12-03T14:40:27.459Z,42.10
2022-12-03T14:42:54.118Z,41.85
2022-12-03T14:45:20.994Z,41.42
2022-12-03T14:47:53.583Z,41.70
2022-12-03T14:50:20.210Z,41.78
2022-12-03T14:52:47.059Z,43.63
2022-12-03T14:55:14.293Z,42.85
2022-12-03T14:57:40.945Z,38.70
2022-12-03T15:00:18.593Z,40.80
2022-12-03T15:02:45.473Z,47.13
2022-12-03T15:07:39.491Z,44.78
2022-12-03T15:10:08.619Z,43.42
2022-12-03T15:12:36.078Z,41.33
2022-12-03T15:15:03.175Z,38.72
2022-12-03T15:17:32.170Z,39.05
2022-12-03T15:19:59.099Z,42.38
2022-12-03T15:22:26.216Z,36.92
2022-12-03T15:24:52.839Z,42.35
2022-12-03T15:27:19.626Z,40.38
2022-12-03T15:32:14.010Z,40.67
2022-12-03T15:34:41.249Z,44.65
2022-12-03T15:37:09.123Z,47.83
2022-12-03T15:39:36.427Z,42.25
2022-12-03T15:44:51.454Z,39.22
2022-12-03T15:47:18.083Z,44.25
2022-12-03T15:49:44.775Z,42.08
2022-12-03T15:52:11.388Z,41.22
2022-12-03T15:54:38.211Z,40.65
2022-12-03T15:59:31.474Z,38.70
2022-12-03T16:01:58.521Z,37.55
2022-12-03T16:04:27.392Z,39.95
2022-12-03T16:06:54.503Z,42.40
2022-12-03T16:09:26.661Z,42.05
2022-12-03T16:11:55.096Z,40.63
2022-12-03T16:14:21.771Z,41.17
2022-12-03T16:19:14.933Z,40.50
2022-12-03T16:21:42.956Z,40.42
2022-12-03T16:24:09.557Z,40.38
2022-12-03T16:26:36.357Z,37.47
2022-12-03T16:31:32.977Z,45.33
2022-12-03T16:34:00.157Z,39.95
2022-12-03T16:36:26.932Z,49.97
2022-12-03T16:38:55.097Z,48.45
2022-12-03T16:43:49.792Z,33.33
2022-12-03T16:48:44.753Z,43.70
2022-12-03T16:51:11.510Z,38.13
2022-12-03T16:53:38.566Z,46.05
2022-12-03T16:56:05.915Z,41.50
2022-12-03T16:58:32.758Z,39.00
2022-12-03T17:03:33.581Z,40.63
2022-12-03T17:59:45.939Z,51.33
2022-12-03T18:02:33.450Z,45.75
2022-12-03T18:05:03.627Z,40.00
2022-12-03T18:07:30.473Z,41.15
2022-12-03T18:16:35.405Z,39.40
2022-12-03T18:19:06.212Z,39.30
2022-12-03T18:21:34.037Z,38.60
2022-12-03T18:24:00.929Z,47.08
2022-12-03T18:26:31.641Z,44.17
2022-12-03T18:28:58.450Z,49.47
2022-12-03T18:31:25.202Z,42.47
2022-12-03T18:36:26.656Z,43.67
2022-12-03T18:38:55.444Z,42.72
2022-12-03T18:41:23.966Z,38.72
2022-12-03T18:43:51.151Z,48.30
2022-12-03T18:46:45.029Z,46.35
2022-12-03T18:49:06.288Z,43.00
2022-12-03T18:51:33.156Z,37.53
2022-12-03T18:53:59.799Z,39.45
2022-12-03T18:56:26.621Z,39.05
2022-12-03T18:58:53.442Z,47.83
2022-12-03T19:03:50.249Z,48.38
2022-12-03T19:06:19.879Z,36.50
2022-12-03T19:08:49.356Z,41.28
2022-12-03T19:11:23.155Z,40.97
2022-12-03T19:13:49.965Z,44.08
2022-12-03T19:18:45.752Z,38.42
2022-12-03T19:21:17.260Z,45.97
2022-12-03T19:24:04.254Z,42.90
2022-12-03T19:26:31.411Z,42.97
2022-12-03T19:29:01.145Z,36.53
2022-12-03T19:31:29.221Z,36.80
2022-12-03T19:33:56.311Z,41.53
2022-12-03T19:36:33.864Z,41.47
2022-12-03T19:39:01.672Z,56.67
2022-12-03T19:41:30.730Z,56.40
2022-12-03T19:43:58.270Z,42.30
2022-12-03T19:46:31.396Z,46.83
2022-12-03T19:48:58.838Z,38.97
2022-12-03T19:51:34.767Z,41.33
2022-12-03T19:54:07.340Z,41.35
2022-12-03T19:56:34.795Z,39.28
2022-12-03T19:59:01.583Z,35.63
2022-12-03T20:01:31.334Z,46.85
2022-12-03T20:03:59.686Z,38.80
2022-12-03T20:06:30.149Z,41.00
2022-12-03T20:09:01.301Z,43.70
2022-12-03T20:11:31.794Z,34.15
2022-12-03T20:14:03.510Z,38.08
2022-12-03T20:16:30.709Z,40.55
2022-12-03T20:19:02.253Z,36.30
2022-12-03T20:21:31.635Z,42.05
2022-12-03T20:23:59.304Z,39.05
2022-12-03T20:26:27.435Z,37.65
2022-12-03T20:28:55.931Z,36.63
2022-12-03T20:31:25.643Z,33.53
2022-12-03T20:33:55.814Z,35.47
2022-12-03T20:36:23.579Z,39.50
2022-12-03T20:38:58.866Z,39.13
2022-12-03T20:41:26.466Z,36.80
2022-12-03T20:43:54.046Z,37.92
2022-12-03T20:46:27.319Z,36.58
2022-12-03T20:48:55.280Z,37.67
2022-12-03T20:51:25.775Z,42.35
2022-12-03T20:53:55.120Z,34.83
2022-12-03T20:56:29.275Z,35.88
2022-12-03T20:59:14.966Z,39.28
2022-12-03T21:01:43.255Z,43.78
2022-12-03T21:04:18.208Z,39.80
2022-12-03T21:06:45.479Z,35.85
2022-12-03T21:09:15.521Z,44.05
2022-12-03T21:11:43.123Z,40.70
2022-12-03T21:14:11.241Z,44.70
2022-12-03T21:17:07.062Z,51.03
2022-12-03T21:19:30.001Z,52.97
2022-12-03T21:24:23.417Z,49.88
2022-12-03T21:26:50.620Z,46.85
2022-12-03T21:29:18.267Z,57.47
2022-12-03T21:31:45.110Z,50.38
2022-12-03T21:34:12.965Z,52.20
2022-12-03T21:36:40.100Z,57.83
2022-12-03T21:39:07.276Z,58.58
2022-12-03T21:41:35.558Z,53.00
2022-12-03T21:44:02.430Z,56.75
2022-12-03T21:47:12.280Z,47.08
2022-12-03T21:49:19.460Z,56.30
2022-12-03T21:51:47.024Z,57.40
2022-12-03T21:54:16.447Z,58.20
2022-12-03T21:56:44.082Z,53.28
2022-12-03T21:59:10.891Z,43.45
2022-12-03T22:01:39.590Z,59.63
2022-12-03T22:04:10.889Z,51.15
2022-12-03T22:07:23.971Z,63.40
2022-12-03T22:09:58.120Z,55.53
2022-12-03T22:12:27.548Z,60.05
2022-12-03T22:14:57.145Z,56.65
2022-12-03T22:17:25.278Z,58.08
2022-12-03T22:19:52.237Z,70.57
2022-12-03T22:22:19.857Z,51.13
2022-12-03T22:24:47.268Z,56.30
2022-12-03T22:27:16.101Z,58.70
2022-12-03T22:29:43.201Z,56.30
2022-12-03T22:32:10.061Z,63.72
2022-12-03T22:37:05.174Z,56.65
2022-12-03T22:39:33.157Z,54.53
2022-12-03T22:42:08.967Z,70.07
2022-12-03T22:44:35.704Z,63.20
2022-12-03T22:49:29.441Z,62.65
2022-12-03T22:51:56.175Z,57.10
2022-12-03T22:54:24.283Z,61.67
2022-12-03T22:56:51.266Z,60.88
2022-12-03T23:01:48.072Z,59.53
2022-12-03T23:04:14.857Z,66.35
2022-12-03T23:09:08.569Z,57.80
2022-12-03T23:11:36.089Z,55.13
2022-12-03T23:14:03.356Z,73.43
2022-12-03T23:16:31.935Z,54.80
2022-12-03T23:19:02.312Z,66.43
2022-12-03T23:21:32.042Z,68.63
2022-12-03T23:24:00.765Z,63.33
2022-12-03T23:26:28.305Z,68.40
2022-12-03T23:28:55.599Z,53.00
2022-12-03T23:31:28.715Z,61.20
2022-12-03T23:33:57.348Z,63.60
2022-12-03T23:36:25.979Z,68.82
2022-12-03T23:38:52.898Z,57.17
2022-12-03T23:41:21.484Z,61.10
2022-12-03T23:43:48.249Z,62.33
2022-12-03T23:48:43.841Z,55.88
2022-12-03T23:51:13.793Z,63.80
2022-12-03T23:53:41.440Z,62.13
2022-12-03T23:56:09.441Z,66.05
2022-12-03T23:58:36.145Z,71.40
